createdAt,value
2023-05-14T00:00:28.912Z,13.41
2023-05-14T00:02:55.930Z,13.41
2023-05-14T00:05:22.725Z,13.39
2023-05-14T00:07:49.320Z,13.37
2023-05-14T00:10:17.517Z,13.31
2023-05-14T00:12:43.998Z,13.28
2023-05-14T00:15:10.641Z,13.29
2023-05-14T00:17:38.022Z,13.21
2023-05-14T00:20:07.088Z,13.16
2023-05-14T00:22:34.089Z,13.06
2023-05-14T00:25:00.805Z,12.93
2023-05-14T00:27:27.489Z,12.81
2023-05-14T00:29:53.941Z,12.86
2023-05-14T00:32:20.707Z,12.82
2023-05-14T00:34:47.169Z,12.81
2023-05-14T00:37:13.872Z,12.80
2023-05-14T00:39:40.327Z,12.62
2023-05-14T00:42:07.160Z,12.66
2023-05-14T00:44:33.739Z,12.57
2023-05-14T00:47:00.783Z,12.62
2023-05-14T00:49:28.509Z,12.51
2023-05-14T00:51:55.760Z,12.54
2023-05-14T00:54:22.658Z,12.49
2023-05-14T00:56:50.821Z,12.44
2023-05-14T00:59:17.266Z,12.27
2023-05-14T01:01:43.867Z,12.25
2023-05-14T01:04:11.840Z,12.20
2023-05-14T01:06:53.153Z,12.19
2023-05-14T01:09:29.772Z,12.27
2023-05-14T01:12:10.054Z,12.13
2023-05-14T01:14:45.405Z,12.13
2023-05-14T01:17:15.135Z,12.09
2023-05-14T01:19:43.830Z,12.07
2023-05-14T01:22:12.063Z,12.04
2023-05-14T01:24:39.111Z,11.97
2023-05-14T01:27:14.709Z,11.91
2023-05-14T01:29:45.186Z,11.85
2023-05-14T01:32:13.616Z,11.83
2023-05-14T01:34:41.840Z,11.91
2023-05-14T01:37:11.383Z,11.91
2023-05-14T01:39:38.953Z,11.87
2023-05-14T01:42:07.225Z,11.67
2023-05-14T01:44:34.455Z,11.76
2023-05-14T01:47:01.441Z,11.79
2023-05-14T01:49:27.901Z,11.71
2023-05-14T01:51:54.469Z,11.78
2023-05-14T01:54:21.186Z,11.71
2023-05-14T01:56:47.607Z,11.64
2023-05-14T01:59:14.144Z,11.58
2023-05-14T02:01:40.707Z,11.54
2023-05-14T02:04:07.533Z,11.46
2023-05-14T02:06:34.093Z,11.32
2023-05-14T02:09:00.651Z,11.41
2023-05-14T02:11:27.085Z,11.26
2023-05-14T02:13:53.774Z,11.36
2023-05-14T02:16:20.268Z,11.30
2023-05-14T02:18:46.785Z,11.37
2023-05-14T02:21:13.268Z,11.40
2023-05-14T02:23:41.948Z,11.33
2023-05-14T02:26:10.292Z,11.45
2023-05-14T02:28:36.822Z,11.50
2023-05-14T02:31:03.725Z,11.61
2023-05-14T02:33:30.264Z,11.70
2023-05-14T02:35:56.756Z,11.80
2023-05-14T02:38:23.526Z,11.75
2023-05-14T02:40:50.087Z,11.76
2023-05-14T02:43:16.521Z,11.79
2023-05-14T02:45:43.063Z,11.69
2023-05-14T02:48:09.498Z,11.52
2023-05-14T02:50:36.076Z,11.54
2023-05-14T02:53:02.588Z,11.44
2023-05-14T02:55:29.178Z,11.49
2023-05-14T02:57:56.725Z,11.53
2023-05-14T03:00:23.800Z,11.50
2023-05-14T03:02:50.916Z,11.41
2023-05-14T03:05:17.942Z,11.30
2023-05-14T03:07:44.469Z,11.31
2023-05-14T03:10:11.216Z,11.28
2023-05-14T03:12:37.701Z,11.26
2023-05-14T03:15:04.420Z,11.21
2023-05-14T03:17:30.872Z,11.15
2023-05-14T03:19:57.384Z,11.15
2023-05-14T03:22:23.840Z,11.06
2023-05-14T03:24:50.284Z,11.05
2023-05-14T03:27:16.716Z,11.03
2023-05-14T03:29:43.382Z,11.03
2023-05-14T03:32:09.968Z,11.04
2023-05-14T03:34:36.888Z,11.04
2023-05-14T03:37:03.503Z,11.01
2023-05-14T03:39:30.284Z,10.93
2023-05-14T03:41:58.841Z,10.94
2023-05-14T03:44:25.479Z,10.97
2023-05-14T03:46:52.365Z,10.93
2023-05-14T03:49:19.164Z,10.91
2023-05-14T03:51:45.680Z,10.91
2023-05-14T03:54:12.115Z,10.92
2023-05-14T03:56:38.565Z,10.89
2023-05-14T03:59:05.324Z,10.90
2023-05-14T04:01:32.312Z,10.90
2023-05-14T04:03:58.965Z,10.97
2023-05-14T04:06:26.102Z,11.02
2023-05-14T04:08:52.540Z,10.96
2023-05-14T04:11:18.976Z,10.93
2023-05-14T04:13:45.565Z,10.87
2023-05-14T04:16:11.992Z,10.89
2023-05-14T04:18:38.778Z,10.89
2023-05-14T04:21:05.402Z,10.94
2023-05-14T04:23:31.967Z,11.00
2023-05-14T04:25:58.946Z,11.13
2023-05-14T04:28:25.789Z,11.14
2023-05-14T04:30:52.428Z,11.31
2023-05-14T04:33:19.017Z,11.50
2023-05-14T04:35:46.126Z,11.71
2023-05-14T04:38:14.177Z,11.92
2023-05-14T04:40:41.490Z,12.06
2023-05-14T04:43:08.211Z,12.24
2023-05-14T04:45:34.819Z,12.39
2023-05-14T04:48:02.272Z,12.70
2023-05-14T04:50:28.702Z,12.84
2023-05-14T04:52:55.953Z,12.95
2023-05-14T04:55:22.907Z,13.08
2023-05-14T04:57:49.345Z,13.19
2023-05-14T05:00:17.315Z,13.33
2023-05-14T05:02:43.953Z,13.48
2023-05-14T05:05:10.661Z,13.57
2023-05-14T05:07:37.079Z,13.69
2023-05-14T05:10:03.849Z,13.71
2023-05-14T05:12:30.460Z,13.80
2023-05-14T05:14:57.769Z,13.89
2023-05-14T05:17:25.155Z,13.98
2023-05-14T05:19:51.712Z,14.05
2023-05-14T05:22:20.339Z,14.12
2023-05-14T05:24:47.994Z,14.19
2023-05-14T05:27:15.854Z,14.29
2023-05-14T05:29:42.298Z,14.41
2023-05-14T05:32:09.029Z,14.51
2023-05-14T05:34:36.323Z,14.59
2023-05-14T05:37:03.207Z,14.65
2023-05-14T05:39:34.568Z,14.74
2023-05-14T05:42:04.743Z,14.82
2023-05-14T05:44:31.199Z,14.87
2023-05-14T05:46:57.835Z,14.99
2023-05-14T05:49:24.529Z,15.00
2023-05-14T05:51:51.210Z,15.09
2023-05-14T05:54:17.748Z,15.16
2023-05-14T05:56:44.297Z,15.18
2023-05-14T05:59:10.732Z,15.26
2023-05-14T06:01:37.409Z,15.35
2023-05-14T06:04:06.127Z,15.41
2023-05-14T06:06:33.046Z,15.43
2023-05-14T06:08:59.505Z,15.44
2023-05-14T06:11:26.710Z,15.47
2023-05-14T06:13:53.444Z,15.50
2023-05-14T06:16:20.158Z,15.58
2023-05-14T06:18:47.042Z,15.62
2023-05-14T06:21:13.625Z,15.64
2023-05-14T06:23:40.996Z,15.75
2023-05-14T06:26:07.605Z,15.76
2023-05-14T06:28:34.043Z,15.87
2023-05-14T06:31:00.785Z,15.93
2023-05-14T06:33:30.955Z,16.04
2023-05-14T06:36:02.650Z,16.08
2023-05-14T06:38:29.100Z,16.19
2023-05-14T06:40:55.667Z,16.25
2023-05-14T06:43:22.270Z,16.40
2023-05-14T06:45:49.924Z,16.51
2023-05-14T06:48:18.780Z,16.64
2023-05-14T06:50:46.556Z,16.67
2023-05-14T06:53:13.135Z,16.83
2023-05-14T06:55:40.190Z,17.01
2023-05-14T06:58:07.890Z,17.05
2023-05-14T07:00:34.666Z,17.12
2023-05-14T07:03:01.178Z,17.18
2023-05-14T07:05:27.863Z,17.29
2023-05-14T07:07:54.320Z,17.33
2023-05-14T07:10:20.882Z,17.44
2023-05-14T07:12:47.783Z,17.60
2023-05-14T07:15:14.347Z,17.72
2023-05-14T07:17:41.274Z,17.81
2023-05-14T07:20:08.213Z,17.90
2023-05-14T07:22:34.770Z,18.06
2023-05-14T07:25:01.297Z,18.21
2023-05-14T07:27:27.827Z,18.25
2023-05-14T07:29:54.374Z,18.28
2023-05-14T07:32:21.002Z,18.41
2023-05-14T07:34:47.487Z,18.45
2023-05-14T07:37:13.990Z,18.36
2023-05-14T07:39:41.630Z,18.48
2023-05-14T07:42:08.126Z,18.50
2023-05-14T07:44:34.546Z,18.53
2023-05-14T07:47:01.176Z,18.68
2023-05-14T07:49:27.693Z,18.66
2023-05-14T07:51:54.258Z,18.75
2023-05-14T07:54:20.795Z,18.88
2023-05-14T07:56:47.355Z,19.02
2023-05-14T07:59:13.789Z,19.15
2023-05-14T08:01:40.680Z,19.30
2023-05-14T08:04:07.541Z,19.39
2023-05-14T08:06:34.304Z,19.45
2023-05-14T08:09:00.738Z,19.53
2023-05-14T08:11:27.333Z,19.79
2023-05-14T08:13:53.757Z,19.84
2023-05-14T08:16:20.352Z,20.06
2023-05-14T08:18:47.060Z,20.10
2023-05-14T08:21:13.699Z,20.14
2023-05-14T08:23:40.339Z,20.09
2023-05-14T08:26:07.199Z,20.16
2023-05-14T08:28:33.567Z,20.26
2023-05-14T08:31:00.415Z,20.28
2023-05-14T08:33:26.883Z,20.41
2023-05-14T08:35:53.994Z,20.58
2023-05-14T08:38:20.614Z,20.63
2023-05-14T08:41:06.445Z,20.58
2023-05-14T08:43:50.405Z,20.62
2023-05-14T08:46:18.061Z,20.56
2023-05-14T08:48:48.973Z,20.46
2023-05-14T08:51:15.531Z,20.60
2023-05-14T08:53:42.058Z,20.62
2023-05-14T08:56:09.403Z,20.69
2023-05-14T08:58:35.839Z,20.71
2023-05-14T09:01:02.533Z,20.68
2023-05-14T09:03:30.096Z,20.81
2023-05-14T09:05:59.991Z,20.84
2023-05-14T09:08:26.751Z,21.05
2023-05-14T09:10:53.235Z,20.99
2023-05-14T09:13:19.629Z,21.05
2023-05-14T09:15:48.324Z,21.24
2023-05-14T09:18:14.779Z,21.32
2023-05-14T09:20:41.587Z,21.26
2023-05-14T09:23:07.985Z,21.21
2023-05-14T09:25:34.459Z,21.24
2023-05-14T09:28:05.943Z,21.25
2023-05-14T09:30:34.118Z,21.29
2023-05-14T09:33:00.735Z,21.48
2023-05-14T09:35:27.320Z,21.57
2023-05-14T09:37:55.367Z,21.67
2023-05-14T09:40:24.374Z,21.64
2023-05-14T09:42:51.454Z,21.79
2023-05-14T09:45:18.140Z,21.78
2023-05-14T09:47:45.115Z,21.82
2023-05-14T09:50:12.354Z,21.92
2023-05-14T09:52:39.405Z,21.88
2023-05-14T09:55:06.581Z,21.98
2023-05-14T09:57:33.594Z,22.13
2023-05-14T10:00:00.386Z,22.43
2023-05-14T10:02:36.779Z,22.65
2023-05-14T10:05:06.380Z,22.77
2023-05-14T10:07:42.375Z,22.41
2023-05-14T10:10:13.016Z,22.65
2023-05-14T10:12:40.572Z,22.85
2023-05-14T10:15:15.394Z,22.99
2023-05-14T10:17:47.512Z,23.03
2023-05-14T10:20:15.622Z,23.07
2023-05-14T10:22:42.129Z,23.17
2023-05-14T10:25:09.574Z,23.11
2023-05-14T10:27:36.501Z,22.83
2023-05-14T10:30:06.402Z,22.91
2023-05-14T10:32:33.128Z,22.84
2023-05-14T10:35:01.633Z,23.23
2023-05-14T10:37:29.979Z,23.33
2023-05-14T10:40:02.523Z,23.32
2023-05-14T10:42:35.740Z,23.62
2023-05-14T10:45:07.244Z,23.86
2023-05-14T10:47:38.686Z,24.06
2023-05-14T10:50:08.004Z,24.17
2023-05-14T10:52:35.396Z,24.03
2023-05-14T10:55:04.210Z,24.17
2023-05-14T10:57:32.089Z,24.24
2023-05-14T11:00:00.288Z,24.05
2023-05-14T11:02:29.360Z,24.31
2023-05-14T11:04:59.341Z,24.45
2023-05-14T11:07:45.906Z,24.27
2023-05-14T11:10:14.230Z,24.57
2023-05-14T11:12:43.087Z,24.41
2023-05-14T11:15:17.763Z,24.47
2023-05-14T11:17:45.453Z,24.78
2023-05-14T11:20:12.728Z,24.61
2023-05-14T11:22:40.994Z,24.60
2023-05-14T11:25:08.665Z,24.91
2023-05-14T11:27:36.634Z,24.80
2023-05-14T11:30:04.273Z,24.38
2023-05-14T11:32:33.923Z,24.26
2023-05-14T11:35:00.564Z,23.78
2023-05-14T11:37:27.020Z,23.43
2023-05-14T11:39:55.667Z,23.09
2023-05-14T11:42:22.504Z,22.96
2023-05-14T11:44:51.581Z,22.77
2023-05-14T11:47:19.630Z,22.47
2023-05-14T11:49:46.620Z,22.28
2023-05-14T11:52:15.335Z,21.97
2023-05-14T11:54:44.099Z,21.75
2023-05-14T11:57:19.439Z,21.73
2023-05-14T11:59:48.110Z,21.81
2023-05-14T12:02:17.584Z,22.10
2023-05-14T12:04:49.210Z,22.51
2023-05-14T12:07:16.385Z,22.94
2023-05-14T12:09:49.090Z,23.37
2023-05-14T12:12:19.077Z,23.54
2023-05-14T12:14:46.663Z,23.52
2023-05-14T12:17:18.031Z,23.49
2023-05-14T12:19:45.952Z,23.39
2023-05-14T12:22:15.459Z,23.54
2023-05-14T12:24:43.622Z,23.77
2023-05-14T12:27:10.694Z,23.89
2023-05-14T12:29:41.160Z,24.41
2023-05-14T12:32:10.059Z,25.37
2023-05-14T12:34:37.980Z,25.79
2023-05-14T12:37:05.803Z,26.12
2023-05-14T12:39:33.734Z,26.73
2023-05-14T12:42:00.449Z,26.41
2023-05-14T12:44:26.972Z,26.85
2023-05-14T12:46:54.013Z,26.67
2023-05-14T12:49:20.534Z,27.16
2023-05-14T12:51:47.151Z,26.78
2023-05-14T12:54:15.792Z,26.28
2023-05-14T12:56:42.657Z,25.87
2023-05-14T12:59:09.539Z,25.59
2023-05-14T13:01:37.625Z,25.74
2023-05-14T13:04:05.421Z,26.47
2023-05-14T13:06:32.637Z,26.79
2023-05-14T13:09:01.652Z,27.41
2023-05-14T13:11:30.335Z,27.32
2023-05-14T13:13:56.830Z,26.72
2023-05-14T13:16:23.477Z,27.10
2023-05-14T13:18:50.042Z,26.67
2023-05-14T13:21:16.569Z,27.14
2023-05-14T13:23:42.972Z,27.00
2023-05-14T13:26:09.812Z,26.93
2023-05-14T13:28:36.200Z,27.00
2023-05-14T13:31:11.828Z,26.78
2023-05-14T13:33:43.300Z,26.89
2023-05-14T13:36:11.770Z,27.50
2023-05-14T13:38:38.356Z,27.65
2023-05-14T13:41:05.750Z,27.92
2023-05-14T13:43:34.316Z,27.89
2023-05-14T13:46:01.548Z,27.30
2023-05-14T13:48:28.087Z,26.30
2023-05-14T13:50:55.105Z,26.62
2023-05-14T13:53:23.051Z,26.91
2023-05-14T13:55:50.614Z,27.14
2023-05-14T13:58:17.252Z,27.44
2023-05-14T14:00:43.812Z,27.90
2023-05-14T14:03:10.372Z,27.69
2023-05-14T14:05:37.059Z,27.59
2023-05-14T14:08:17.801Z,27.37
2023-05-14T14:10:49.958Z,27.33
2023-05-14T14:13:16.478Z,27.27
2023-05-14T14:15:43.712Z,27.72
2023-05-14T14:18:10.252Z,28.13
2023-05-14T14:20:37.027Z,28.32
2023-05-14T14:23:03.430Z,27.89
2023-05-14T14:25:31.064Z,27.65
2023-05-14T14:27:57.498Z,27.48
2023-05-14T14:30:24.231Z,27.64
2023-05-14T14:32:50.853Z,27.78
2023-05-14T14:35:19.007Z,27.73
2023-05-14T14:37:49.115Z,28.11
2023-05-14T14:40:16.719Z,28.61
2023-05-14T14:42:43.742Z,28.79
2023-05-14T14:45:11.289Z,28.18
2023-05-14T14:47:37.735Z,28.31
2023-05-14T14:50:05.010Z,28.33
2023-05-14T14:52:31.430Z,28.26
2023-05-14T14:54:58.197Z,27.69
2023-05-14T14:57:24.711Z,28.03
2023-05-14T14:59:51.279Z,28.14
2023-05-14T15:02:17.710Z,28.58
2023-05-14T15:04:44.377Z,29.01
2023-05-14T15:07:11.117Z,28.27
2023-05-14T15:09:37.621Z,28.62
2023-05-14T15:12:04.410Z,28.99
2023-05-14T15:14:31.016Z,28.16
2023-05-14T15:16:57.492Z,28.59
2023-05-14T15:19:23.999Z,28.56
2023-05-14T15:21:50.478Z,27.77
2023-05-14T15:24:16.958Z,27.44
2023-05-14T15:26:43.384Z,27.94
2023-05-14T15:29:09.912Z,27.92
2023-05-14T15:31:36.482Z,27.67
2023-05-14T15:34:03.670Z,27.16
2023-05-14T15:36:30.776Z,27.07
2023-05-14T15:38:57.268Z,27.52
2023-05-14T15:41:25.422Z,27.66
2023-05-14T15:43:52.028Z,27.20
2023-05-14T15:46:18.537Z,27.02
2023-05-14T15:48:45.511Z,26.68
2023-05-14T15:51:12.590Z,26.65
2023-05-14T15:53:39.363Z,26.47
2023-05-14T15:56:06.125Z,26.18
2023-05-14T15:58:32.581Z,26.27
2023-05-14T16:00:59.016Z,26.42
2023-05-14T16:03:25.776Z,26.14
2023-05-14T16:05:52.385Z,25.85
2023-05-14T16:08:18.891Z,26.32
2023-05-14T16:10:45.389Z,26.13
2023-05-14T16:13:11.973Z,26.50
2023-05-14T16:15:39.739Z,25.99
2023-05-14T16:18:06.423Z,25.23
2023-05-14T16:20:32.833Z,25.12
2023-05-14T16:22:59.512Z,25.47
2023-05-14T16:25:26.103Z,25.52
2023-05-14T16:27:52.637Z,25.65
2023-05-14T16:30:19.039Z,25.52
2023-05-14T16:32:49.327Z,26.07
2023-05-14T16:35:16.752Z,26.07
2023-05-14T16:37:43.408Z,26.00
2023-05-14T16:40:11.713Z,26.35
2023-05-14T16:42:38.749Z,26.49
2023-05-14T16:45:05.566Z,26.79
2023-05-14T16:47:32.057Z,27.05
2023-05-14T16:49:58.751Z,26.57
2023-05-14T16:52:25.151Z,26.22
2023-05-14T16:54:51.710Z,25.82
2023-05-14T16:57:18.200Z,25.73
2023-05-14T16:59:44.861Z,25.08
2023-05-14T17:02:11.276Z,24.86
2023-05-14T17:04:41.825Z,24.27
2023-05-14T17:07:08.400Z,24.14
2023-05-14T17:09:35.153Z,24.21
2023-05-14T17:12:01.610Z,24.20
2023-05-14T17:14:28.082Z,24.16
2023-05-14T17:16:54.744Z,23.82
2023-05-14T17:19:21.442Z,23.64
2023-05-14T17:21:47.831Z,23.39
2023-05-14T17:24:14.271Z,23.35
2023-05-14T17:26:40.696Z,22.94
2023-05-14T17:29:07.371Z,22.87
2023-05-14T17:31:34.351Z,22.79
2023-05-14T17:34:00.982Z,22.45
2023-05-14T17:36:28.496Z,22.46
2023-05-14T17:38:55.316Z,22.50
2023-05-14T17:41:21.741Z,22.44
2023-05-14T17:43:48.328Z,22.35
2023-05-14T17:46:14.775Z,22.14
2023-05-14T17:48:41.415Z,21.98
2023-05-14T17:51:07.831Z,21.90
2023-05-14T17:53:34.292Z,21.87
2023-05-14T17:56:00.864Z,21.82
2023-05-14T17:58:27.636Z,21.70
2023-05-14T18:00:54.099Z,21.66
2023-05-14T18:03:20.701Z,21.54
2023-05-14T18:05:47.382Z,21.62
2023-05-14T18:08:14.905Z,21.66
2023-05-14T18:10:41.327Z,21.53
2023-05-14T18:13:07.807Z,21.43
2023-05-14T18:15:36.134Z,21.34
2023-05-14T18:18:02.970Z,21.28
2023-05-14T18:20:29.388Z,21.15
2023-05-14T18:22:55.828Z,21.17
2023-05-14T18:25:22.352Z,21.07
2023-05-14T18:27:49.148Z,21.06
2023-05-14T18:30:15.878Z,20.99
2023-05-14T18:32:44.308Z,20.84
2023-05-14T18:35:12.223Z,20.76
2023-05-14T18:37:38.750Z,20.77
2023-05-14T18:40:06.940Z,20.64
2023-05-14T18:42:34.049Z,20.63
2023-05-14T18:45:00.782Z,20.52
2023-05-14T18:47:27.456Z,20.44
2023-05-14T18:49:55.822Z,20.31
2023-05-14T18:52:22.796Z,20.31
2023-05-14T18:54:50.873Z,20.28
2023-05-14T18:57:17.570Z,20.15
2023-05-14T18:59:44.001Z,20.00
2023-05-14T19:02:10.800Z,19.82
2023-05-14T19:04:50.621Z,19.73
2023-05-14T19:07:18.087Z,19.55
2023-05-14T19:09:44.490Z,19.47
2023-05-14T19:12:10.948Z,19.39
2023-05-14T19:14:37.556Z,19.29
2023-05-14T19:17:04.653Z,19.21
2023-05-14T19:19:31.357Z,19.25
2023-05-14T19:21:57.744Z,19.23
2023-05-14T19:24:24.703Z,19.21
2023-05-14T19:26:51.251Z,19.10
2023-05-14T19:29:17.713Z,19.03
2023-05-14T19:31:44.200Z,18.80
2023-05-14T19:34:10.904Z,18.79
2023-05-14T19:36:37.340Z,18.69
2023-05-14T19:39:04.116Z,18.62
2023-05-14T19:41:30.653Z,18.45
2023-05-14T19:43:57.115Z,18.36
2023-05-14T19:46:23.635Z,18.19
2023-05-14T19:48:50.321Z,18.13
2023-05-14T19:51:16.921Z,18.10
2023-05-14T19:53:43.551Z,18.01
2023-05-14T19:56:10.061Z,17.93
2023-05-14T19:58:36.662Z,17.83
2023-05-14T20:01:03.202Z,17.71
2023-05-14T20:03:30.079Z,17.69
2023-05-14T20:05:56.665Z,17.61
2023-05-14T20:08:23.176Z,17.54
2023-05-14T20:10:49.814Z,17.48
2023-05-14T20:13:16.307Z,17.47
2023-05-14T20:15:43.168Z,17.36
2023-05-14T20:18:09.715Z,17.27
2023-05-14T20:20:36.717Z,17.27
2023-05-14T20:23:03.538Z,17.20
2023-05-14T20:25:30.283Z,17.12
2023-05-14T20:27:56.954Z,17.16
2023-05-14T20:30:23.974Z,17.16
2023-05-14T20:32:51.216Z,17.19
2023-05-14T20:35:17.969Z,17.15
2023-05-14T20:37:44.569Z,17.17
2023-05-14T20:40:14.041Z,17.10
2023-05-14T20:42:40.623Z,17.00
2023-05-14T20:45:07.739Z,16.92
2023-05-14T20:47:35.608Z,16.84
2023-05-14T20:50:02.264Z,16.78
2023-05-14T20:52:28.806Z,16.74
2023-05-14T20:54:55.430Z,16.74
2023-05-14T20:57:22.667Z,16.68
2023-05-14T20:59:49.138Z,16.63
2023-05-14T21:02:15.799Z,16.58
2023-05-14T21:04:42.849Z,16.44
2023-05-14T21:07:09.428Z,16.42
2023-05-14T21:09:35.837Z,16.32
2023-05-14T21:12:02.270Z,16.27
2023-05-14T21:14:28.726Z,16.23
2023-05-14T21:16:55.376Z,16.16
2023-05-14T21:19:22.848Z,16.10
2023-05-14T21:21:49.449Z,16.08
2023-05-14T21:24:16.750Z,16.03
2023-05-14T21:26:43.640Z,16.01
2023-05-14T21:29:10.981Z,15.93
2023-05-14T21:31:37.480Z,15.90
2023-05-14T21:34:03.940Z,15.84
2023-05-14T21:36:31.166Z,15.79
2023-05-14T21:38:57.585Z,15.72
2023-05-14T21:41:24.044Z,15.63
2023-05-14T21:43:50.554Z,15.59
2023-05-14T21:46:17.027Z,15.56
2023-05-14T21:48:43.598Z,15.54
2023-05-14T21:51:11.321Z,15.48
2023-05-14T21:53:37.737Z,15.49
2023-05-14T21:56:04.668Z,15.38
2023-05-14T21:58:31.090Z,15.32
2023-05-14T22:00:57.922Z,15.20
2023-05-14T22:03:24.520Z,15.15
2023-05-14T22:05:51.663Z,15.22
2023-05-14T22:08:18.080Z,15.12
2023-05-14T22:10:45.375Z,15.18
2023-05-14T22:13:11.773Z,15.05
2023-05-14T22:15:38.461Z,15.05
2023-05-14T22:18:04.974Z,14.93
2023-05-14T22:20:31.556Z,14.83
2023-05-14T22:22:58.103Z,14.66
2023-05-14T22:25:24.985Z,14.72
2023-05-14T22:27:51.682Z,14.72
2023-05-14T22:30:18.310Z,14.69
2023-05-14T22:32:44.824Z,14.74
2023-05-14T22:35:11.616Z,14.62
2023-05-14T22:37:38.140Z,14.60
2023-05-14T22:40:08.548Z,14.57
2023-05-14T22:42:34.969Z,14.45
2023-05-14T22:45:01.635Z,14.48
2023-05-14T22:47:28.111Z,14.53
2023-05-14T22:49:54.698Z,14.46
2023-05-14T22:52:21.110Z,14.39
2023-05-14T22:54:50.836Z,14.28
2023-05-14T22:57:17.804Z,14.26
2023-05-14T22:59:44.268Z,14.12
2023-05-14T23:02:10.930Z,14.09
2023-05-14T23:04:37.514Z,14.15
2023-05-14T23:07:04.172Z,14.05
2023-05-14T23:09:30.787Z,14.02
2023-05-14T23:11:57.235Z,13.97
2023-05-14T23:14:23.908Z,13.92
2023-05-14T23:16:50.423Z,13.84
2023-05-14T23:19:17.285Z,13.86
2023-05-14T23:21:43.822Z,13.86
2023-05-14T23:24:10.374Z,13.89
2023-05-14T23:26:36.954Z,13.77
2023-05-14T23:29:03.515Z,13.81
2023-05-14T23:31:30.295Z,13.76
2023-05-14T23:33:56.975Z,13.67
2023-05-14T23:36:23.572Z,13.57
2023-05-14T23:38:50.232Z,13.58
2023-05-14T23:41:16.731Z,13.49
2023-05-14T23:43:43.134Z,13.50
2023-05-14T23:46:10.325Z,13.47
2023-05-14T23:48:37.002Z,13.38
2023-05-14T23:51:03.907Z,13.36
2023-05-14T23:53:30.318Z,13.37
2023-05-14T23:55:57.049Z,13.29
2023-05-14T23:58:23.790Z,13.33
